sensor_id;sensor_type;location;lat;lon;timestamp;P1;durP1;ratioP1;P2;durP2;ratioP2
37157;SDS011;23050;51.776;22.638;2023-08-21T00:01:19;33.35;;;29.95;;
37157;SDS011;23050;51.776;22.638;2023-08-21T00:03:45;33.92;;;30.38;;
37157;SDS011;23050;51.776;22.638;2023-08-21T00:06:11;33.72;;;30.20;;
37157;SDS011;23050;51.776;22.638;2023-08-21T00:08:36;33.92;;;30.33;;
37157;SDS011;23050;51.776;22.638;2023-08-21T00:11:02;33.97;;;30.33;;
37157;SDS011;23050;51.776;22.638;2023-08-21T00:13:30;32.55;;;29.17;;
37157;SDS011;23050;51.776;22.638;2023-08-21T00:15:55;34.08;;;30.63;;
37157;SDS011;23050;51.776;22.638;2023-08-21T00:18:21;33.72;;;30.08;;
37157;SDS011;23050;51.776;22.638;2023-08-21T00:20:47;34.25;;;30.65;;
37157;SDS011;23050;51.776;22.638;2023-08-21T00:23:13;33.88;;;30.38;;
37157;SDS011;23050;51.776;22.638;2023-08-21T00:25:39;32.60;;;29.02;;
37157;SDS011;23050;51.776;22.638;2023-08-21T00:28:05;34.10;;;30.63;;
37157;SDS011;23050;51.776;22.638;2023-08-21T00:30:30;33.72;;;30.13;;
37157;SDS011;23050;51.776;22.638;2023-08-21T00:32:56;34.63;;;31.02;;
37157;SDS011;23050;51.776;22.638;2023-08-21T00:35:22;35.15;;;31.40;;
37157;SDS011;23050;51.776;22.638;2023-08-21T00:37:47;35.22;;;31.50;;
37157;SDS011;23050;51.776;22.638;2023-08-21T00:40:13;36.13;;;30.95;;
37157;SDS011;23050;51.776;22.638;2023-08-21T00:42:39;35.25;;;30.70;;
37157;SDS011;23050;51.776;22.638;2023-08-21T00:45:04;38.88;;;32.35;;
37157;SDS011;23050;51.776;22.638;2023-08-21T00:47:33;35.88;;;32.08;;
37157;SDS011;23050;51.776;22.638;2023-08-21T00:49:59;35.22;;;31.52;;
37157;SDS011;23050;51.776;22.638;2023-08-21T00:52:28;36.33;;;32.25;;
37157;SDS011;23050;51.776;22.638;2023-08-21T00:54:57;37.55;;;33.55;;
37157;SDS011;23050;51.776;22.638;2023-08-21T00:57:23;34.63;;;30.98;;
37157;SDS011;23050;51.776;22.638;2023-08-21T00:59:49;34.92;;;31.38;;
37157;SDS011;23050;51.776;22.638;2023-08-21T01:02:23;36.13;;;31.20;;
37157;SDS011;23050;51.776;22.638;2023-08-21T01:04:48;36.90;;;30.10;;
37157;SDS011;23050;51.776;22.638;2023-08-21T01:07:14;35.03;;;31.27;;
37157;SDS011;23050;51.776;22.638;2023-08-21T01:09:47;36.88;;;32.38;;
37157;SDS011;23050;51.776;22.638;2023-08-21T01:12:29;37.95;;;33.95;;
37157;SDS011;23050;51.776;22.638;2023-08-21T01:15:17;36.75;;;33.05;;
37157;SDS011;23050;51.776;22.638;2023-08-21T01:17:43;36.03;;;32.38;;
37157;SDS011;23050;51.776;22.638;2023-08-21T01:20:11;38.25;;;34.25;;
37157;SDS011;23050;51.776;22.638;2023-08-21T01:22:38;38.13;;;34.22;;
37157;SDS011;23050;51.776;22.638;2023-08-21T01:25:10;41.33;;;34.65;;
37157;SDS011;23050;51.776;22.638;2023-08-21T01:27:38;39.63;;;34.63;;
37157;SDS011;23050;51.776;22.638;2023-08-21T01:30:08;39.45;;;33.83;;
37157;SDS011;23050;51.776;22.638;2023-08-21T01:32:37;36.50;;;32.60;;
37157;SDS011;23050;51.776;22.638;2023-08-21T01:35:09;38.38;;;34.17;;
37157;SDS011;23050;51.776;22.638;2023-08-21T01:37:37;40.65;;;35.22;;
37157;SDS011;23050;51.776;22.638;2023-08-21T01:40:03;41.40;;;36.22;;
37157;SDS011;23050;51.776;22.638;2023-08-21T01:42:33;41.47;;;37.15;;
37157;SDS011;23050;51.776;22.638;2023-08-21T01:45:01;48.28;;;37.13;;
37157;SDS011;23050;51.776;22.638;2023-08-21T01:47:27;42.97;;;37.03;;
37157;SDS011;23050;51.776;22.638;2023-08-21T01:49:53;41.13;;;36.75;;
37157;SDS011;23050;51.776;22.638;2023-08-21T01:52:21;40.72;;;36.47;;
37157;SDS011;23050;51.776;22.638;2023-08-21T01:54:50;41.15;;;36.60;;
37157;SDS011;23050;51.776;22.638;2023-08-21T01:57:16;39.58;;;35.38;;
37157;SDS011;23050;51.776;22.638;2023-08-21T01:59:41;41.40;;;35.40;;
37157;SDS011;23050;51.776;22.638;2023-08-21T02:02:09;40.30;;;35.47;;
37157;SDS011;23050;51.776;22.638;2023-08-21T02:04:37;39.00;;;34.80;;
37157;SDS011;23050;51.776;22.638;2023-08-21T02:07:08;40.10;;;35.97;;
37157;SDS011;23050;51.776;22.638;2023-08-21T02:09:34;38.58;;;34.22;;
37157;SDS011;23050;51.776;22.638;2023-08-21T02:12:02;38.75;;;34.72;;
37157;SDS011;23050;51.776;22.638;2023-08-21T02:14:28;41.80;;;35.20;;
37157;SDS011;23050;51.776;22.638;2023-08-21T02:16:53;40.40;;;35.50;;
37157;SDS011;23050;51.776;22.638;2023-08-21T02:19:19;39.22;;;35.00;;
37157;SDS011;23050;51.776;22.638;2023-08-21T02:21:45;41.17;;;36.78;;
37157;SDS011;23050;51.776;22.638;2023-08-21T02:24:11;41.05;;;36.53;;
37157;SDS011;23050;51.776;22.638;2023-08-21T02:26:39;41.43;;;36.40;;
37157;SDS011;23050;51.776;22.638;2023-08-21T02:29:05;40.00;;;34.67;;
37157;SDS011;23050;51.776;22.638;2023-08-21T02:31:35;39.70;;;35.50;;
37157;SDS011;23050;51.776;22.638;2023-08-21T02:34:01;41.90;;;35.60;;
37157;SDS011;23050;51.776;22.638;2023-08-21T02:36:30;40.40;;;36.10;;
37157;SDS011;23050;51.776;22.638;2023-08-21T02:38:55;40.08;;;35.67;;
37157;SDS011;23050;51.776;22.638;2023-08-21T02:41:24;40.55;;;36.10;;
37157;SDS011;23050;51.776;22.638;2023-08-21T02:43:52;40.13;;;35.80;;
37157;SDS011;23050;51.776;22.638;2023-08-21T02:48:50;42.08;;;34.55;;
37157;SDS011;23050;51.776;22.638;2023-08-21T02:51:21;39.40;;;35.20;;
37157;SDS011;23050;51.776;22.638;2023-08-21T02:53:47;40.35;;;35.83;;
37157;SDS011;23050;51.776;22.638;2023-08-21T02:56:13;41.70;;;37.17;;
37157;SDS011;23050;51.776;22.638;2023-08-21T02:58:42;40.95;;;36.67;;
37157;SDS011;23050;51.776;22.638;2023-08-21T03:01:13;41.72;;;36.85;;
37157;SDS011;23050;51.776;22.638;2023-08-21T03:03:42;43.30;;;38.22;;
37157;SDS011;23050;51.776;22.638;2023-08-21T03:06:18;43.80;;;37.92;;
37157;SDS011;23050;51.776;22.638;2023-08-21T03:08:49;43.88;;;36.83;;
37157;SDS011;23050;51.776;22.638;2023-08-21T03:11:17;42.22;;;37.17;;
37157;SDS011;23050;51.776;22.638;2023-08-21T03:13:43;42.05;;;37.22;;
37157;SDS011;23050;51.776;22.638;2023-08-21T03:16:12;49.05;;;38.58;;
37157;SDS011;23050;51.776;22.638;2023-08-21T03:18:53;41.72;;;37.17;;
37157;SDS011;23050;51.776;22.638;2023-08-21T03:21:23;44.42;;;37.65;;
37157;SDS011;23050;51.776;22.638;2023-08-21T03:23:55;41.25;;;36.78;;
37157;SDS011;23050;51.776;22.638;2023-08-21T03:26:31;41.42;;;36.95;;
37157;SDS011;23050;51.776;22.638;2023-08-21T03:28:57;41.20;;;36.25;;
37157;SDS011;23050;51.776;22.638;2023-08-21T03:31:22;42.15;;;37.47;;
37157;SDS011;23050;51.776;22.638;2023-08-21T03:33:48;43.35;;;37.70;;
37157;SDS011;23050;51.776;22.638;2023-08-21T03:36:17;47.63;;;38.63;;
37157;SDS011;23050;51.776;22.638;2023-08-21T03:38:56;43.40;;;35.83;;
37157;SDS011;23050;51.776;22.638;2023-08-21T03:41:29;39.25;;;34.78;;
37157;SDS011;23050;51.776;22.638;2023-08-21T03:43:57;37.97;;;33.88;;
37157;SDS011;23050;51.776;22.638;2023-08-21T03:46:23;36.30;;;32.28;;
37157;SDS011;23050;51.776;22.638;2023-08-21T03:49:00;37.25;;;33.00;;
37157;SDS011;23050;51.776;22.638;2023-08-21T03:51:28;42.78;;;37.03;;
37157;SDS011;23050;51.776;22.638;2023-08-21T03:53:56;40.28;;;35.88;;
37157;SDS011;23050;51.776;22.638;2023-08-21T03:56:22;40.95;;;34.50;;
37157;SDS011;23050;51.776;22.638;2023-08-21T03:58:50;44.93;;;36.40;;
37157;SDS011;23050;51.776;22.638;2023-08-21T04:01:16;39.85;;;34.30;;
37157;SDS011;23050;51.776;22.638;2023-08-21T04:03:47;40.10;;;35.40;;
37157;SDS011;23050;51.776;22.638;2023-08-21T04:06:26;43.30;;;35.75;;
37157;SDS011;23050;51.776;22.638;2023-08-21T04:08:52;44.22;;;37.55;;
37157;SDS011;23050;51.776;22.638;2023-08-21T04:11:28;40.03;;;34.30;;
37157;SDS011;23050;51.776;22.638;2023-08-21T04:14:06;37.33;;;33.30;;
37157;SDS011;23050;51.776;22.638;2023-08-21T04:16:44;40.50;;;33.80;;
37157;SDS011;23050;51.776;22.638;2023-08-21T04:19:21;40.03;;;33.13;;
37157;SDS011;23050;51.776;22.638;2023-08-21T04:22:05;35.35;;;31.48;;
37157;SDS011;23050;51.776;22.638;2023-08-21T04:24:42;37.33;;;32.10;;
37157;SDS011;23050;51.776;22.638;2023-08-21T04:27:21;40.00;;;31.30;;
37157;SDS011;23050;51.776;22.638;2023-08-21T04:29:49;37.03;;;30.45;;
37157;SDS011;23050;51.776;22.638;2023-08-21T04:32:41;34.70;;;29.92;;
37157;SDS011;23050;51.776;22.638;2023-08-21T04:35:14;36.70;;;30.38;;
37157;SDS011;23050;51.776;22.638;2023-08-21T04:37:46;34.63;;;29.17;;
37157;SDS011;23050;51.776;22.638;2023-08-21T04:40:26;31.80;;;27.88;;
37157;SDS011;23050;51.776;22.638;2023-08-21T04:42:54;28.27;;;25.30;;
37157;SDS011;23050;51.776;22.638;2023-08-21T04:45:26;27.02;;;22.55;;
37157;SDS011;23050;51.776;22.638;2023-08-21T04:48:12;22.83;;;20.42;;
37157;SDS011;23050;51.776;22.638;2023-08-21T04:50:40;23.75;;;19.63;;
37157;SDS011;23050;51.776;22.638;2023-08-21T04:53:11;23.55;;;18.92;;
37157;SDS011;23050;51.776;22.638;2023-08-21T04:55:42;20.50;;;17.65;;
37157;SDS011;23050;51.776;22.638;2023-08-21T04:58:25;20.85;;;17.83;;
37157;SDS011;23050;51.776;22.638;2023-08-21T05:01:11;18.45;;;16.55;;
37157;SDS011;23050;51.776;22.638;2023-08-21T05:04:08;18.38;;;16.58;;
37157;SDS011;23050;51.776;22.638;2023-08-21T05:06:37;18.25;;;16.27;;
37157;SDS011;23050;51.776;22.638;2023-08-21T05:09:02;18.63;;;16.52;;
37157;SDS011;23050;51.776;22.638;2023-08-21T05:11:37;17.30;;;15.43;;
37157;SDS011;23050;51.776;22.638;2023-08-21T05:14:10;17.23;;;15.52;;
37157;SDS011;23050;51.776;22.638;2023-08-21T05:16:42;16.90;;;15.15;;
37157;SDS011;23050;51.776;22.638;2023-08-21T05:19:15;16.40;;;14.80;;
37157;SDS011;23050;51.776;22.638;2023-08-21T05:21:43;18.55;;;14.90;;
37157;SDS011;23050;51.776;22.638;2023-08-21T05:26:38;17.98;;;14.80;;
37157;SDS011;23050;51.776;22.638;2023-08-21T05:29:06;15.50;;;14.00;;
37157;SDS011;23050;51.776;22.638;2023-08-21T05:36:50;19.20;;;14.65;;
37157;SDS011;23050;51.776;22.638;2023-08-21T05:41:47;15.73;;;13.95;;
37157;SDS011;23050;51.776;22.638;2023-08-21T05:44:18;15.57;;;14.02;;
37157;SDS011;23050;51.776;22.638;2023-08-21T05:46:47;15.05;;;13.52;;
37157;SDS011;23050;51.776;22.638;2023-08-21T05:49:28;15.02;;;13.43;;
37157;SDS011;23050;51.776;22.638;2023-08-21T05:52:16;14.73;;;13.43;;
37157;SDS011;23050;51.776;22.638;2023-08-21T05:54:44;14.68;;;13.07;;
37157;SDS011;23050;51.776;22.638;2023-08-21T05:57:16;14.52;;;13.07;;
37157;SDS011;23050;51.776;22.638;2023-08-21T05:59:47;15.30;;;12.18;;
37157;SDS011;23050;51.776;22.638;2023-08-21T06:02:18;12.55;;;11.45;;
37157;SDS011;23050;51.776;22.638;2023-08-21T06:04:57;17.70;;;11.68;;
37157;SDS011;23050;51.776;22.638;2023-08-21T06:07:39;14.43;;;11.60;;
37157;SDS011;23050;51.776;22.638;2023-08-21T06:10:14;14.18;;;12.80;;
37157;SDS011;23050;51.776;22.638;2023-08-21T06:12:50;15.52;;;11.63;;
37157;SDS011;23050;51.776;22.638;2023-08-21T06:15:16;17.08;;;12.15;;
37157;SDS011;23050;51.776;22.638;2023-08-21T06:17:44;12.85;;;11.65;;
37157;SDS011;23050;51.776;22.638;2023-08-21T06:20:17;13.38;;;11.98;;
37157;SDS011;23050;51.776;22.638;2023-08-21T06:22:45;12.32;;;11.05;;
37157;SDS011;23050;51.776;22.638;2023-08-21T06:25:14;11.50;;;10.30;;
37157;SDS011;23050;51.776;22.638;2023-08-21T06:27:39;11.85;;;10.45;;
37157;SDS011;23050;51.776;22.638;2023-08-21T06:30:13;13.30;;;11.23;;
37157;SDS011;23050;51.776;22.638;2023-08-21T06:32:51;12.02;;;10.82;;
37157;SDS011;23050;51.776;22.638;2023-08-21T06:35:28;13.05;;;10.43;;
37157;SDS011;23050;51.776;22.638;2023-08-21T06:38:09;11.07;;;9.80;;
37157;SDS011;23050;51.776;22.638;2023-08-21T06:40:37;10.60;;;9.50;;
37157;SDS011;23050;51.776;22.638;2023-08-21T06:43:12;11.57;;;10.02;;
37157;SDS011;23050;51.776;22.638;2023-08-21T06:45:38;11.00;;;10.00;;
37157;SDS011;23050;51.776;22.638;2023-08-21T06:48:03;10.05;;;8.90;;
37157;SDS011;23050;51.776;22.638;2023-08-21T06:50:30;10.35;;;9.32;;
37157;SDS011;23050;51.776;22.638;2023-08-21T06:52:56;12.10;;;8.97;;
37157;SDS011;23050;51.776;22.638;2023-08-21T06:55:22;10.00;;;9.00;;
37157;SDS011;23050;51.776;22.638;2023-08-21T06:57:47;11.98;;;9.25;;
37157;SDS011;23050;51.776;22.638;2023-08-21T07:00:13;10.55;;;9.45;;
37157;SDS011;23050;51.776;22.638;2023-08-21T07:02:39;11.52;;;10.35;;
37157;SDS011;23050;51.776;22.638;2023-08-21T07:05:06;11.65;;;9.95;;
37157;SDS011;23050;51.776;22.638;2023-08-21T07:07:33;11.60;;;10.50;;
37157;SDS011;23050;51.776;22.638;2023-08-21T07:09:58;14.27;;;10.30;;
37157;SDS011;23050;51.776;22.638;2023-08-21T07:12:24;11.23;;;9.93;;
37157;SDS011;23050;51.776;22.638;2023-08-21T07:14:50;11.50;;;9.45;;
37157;SDS011;23050;51.776;22.638;2023-08-21T07:17:15;10.80;;;9.82;;
37157;SDS011;23050;51.776;22.638;2023-08-21T07:19:41;10.77;;;9.68;;
37157;SDS011;23050;51.776;22.638;2023-08-21T07:22:07;11.70;;;9.68;;
37157;SDS011;23050;51.776;22.638;2023-08-21T07:24:32;13.88;;;9.88;;
37157;SDS011;23050;51.776;22.638;2023-08-21T07:26:58;10.60;;;9.18;;
37157;SDS011;23050;51.776;22.638;2023-08-21T07:29:23;11.82;;;9.85;;
37157;SDS011;23050;51.776;22.638;2023-08-21T07:31:49;12.05;;;9.38;;
37157;SDS011;23050;51.776;22.638;2023-08-21T07:34:15;10.57;;;9.40;;
37157;SDS011;23050;51.776;22.638;2023-08-21T07:36:40;10.32;;;9.23;;
37157;SDS011;23050;51.776;22.638;2023-08-21T07:39:06;9.38;;;8.07;;
37157;SDS011;23050;51.776;22.638;2023-08-21T07:41:31;9.52;;;8.63;;
37157;SDS011;23050;51.776;22.638;2023-08-21T07:43:57;8.80;;;7.70;;
37157;SDS011;23050;51.776;22.638;2023-08-21T07:46:23;9.93;;;8.38;;
37157;SDS011;23050;51.776;22.638;2023-08-21T07:48:49;9.30;;;8.40;;
37157;SDS011;23050;51.776;22.638;2023-08-21T07:51:15;9.90;;;8.15;;
37157;SDS011;23050;51.776;22.638;2023-08-21T07:53:40;10.20;;;8.65;;
37157;SDS011;23050;51.776;22.638;2023-08-21T07:56:06;13.07;;;8.10;;
37157;SDS011;23050;51.776;22.638;2023-08-21T07:58:32;13.02;;;8.20;;
37157;SDS011;23050;51.776;22.638;2023-08-21T08:00:58;9.23;;;8.27;;
37157;SDS011;23050;51.776;22.638;2023-08-21T08:03:24;12.30;;;8.02;;
37157;SDS011;23050;51.776;22.638;2023-08-21T08:05:50;8.52;;;7.63;;
37157;SDS011;23050;51.776;22.638;2023-08-21T08:08:16;8.98;;;8.07;;
37157;SDS011;23050;51.776;22.638;2023-08-21T08:10:42;12.45;;;8.23;;
37157;SDS011;23050;51.776;22.638;2023-08-21T08:13:08;9.13;;;8.18;;
37157;SDS011;23050;51.776;22.638;2023-08-21T08:15:34;9.63;;;8.82;;
37157;SDS011;23050;51.776;22.638;2023-08-21T08:18:03;9.10;;;8.25;;
37157;SDS011;23050;51.776;22.638;2023-08-21T08:20:30;13.00;;;8.20;;
37157;SDS011;23050;51.776;22.638;2023-08-21T08:22:56;9.52;;;8.32;;
37157;SDS011;23050;51.776;22.638;2023-08-21T08:25:22;10.45;;;8.52;;
37157;SDS011;23050;51.776;22.638;2023-08-21T08:27:47;9.52;;;7.85;;
37157;SDS011;23050;51.776;22.638;2023-08-21T08:30:14;8.63;;;7.78;;
37157;SDS011;23050;51.776;22.638;2023-08-21T08:32:40;11.23;;;9.38;;
37157;SDS011;23050;51.776;22.638;2023-08-21T08:35:12;11.63;;;8.75;;
37157;SDS011;23050;51.776;22.638;2023-08-21T08:37:38;11.85;;;9.80;;
37157;SDS011;23050;51.776;22.638;2023-08-21T08:40:05;10.45;;;9.52;;
37157;SDS011;23050;51.776;22.638;2023-08-21T08:42:31;17.55;;;10.45;;
37157;SDS011;23050;51.776;22.638;2023-08-21T08:44:58;11.50;;;10.05;;
37157;SDS011;23050;51.776;22.638;2023-08-21T08:47:28;13.38;;;10.60;;
37157;SDS011;23050;51.776;22.638;2023-08-21T08:50:14;11.73;;;9.45;;
37157;SDS011;23050;51.776;22.638;2023-08-21T08:52:41;11.32;;;9.27;;
37157;SDS011;23050;51.776;22.638;2023-08-21T08:55:08;11.82;;;9.35;;
37157;SDS011;23050;51.776;22.638;2023-08-21T08:57:34;10.30;;;9.30;;
37157;SDS011;23050;51.776;22.638;2023-08-21T09:00:00;9.95;;;8.98;;
37157;SDS011;23050;51.776;22.638;2023-08-21T09:02:26;10.82;;;9.73;;
37157;SDS011;23050;51.776;22.638;2023-08-21T09:04:52;11.20;;;9.85;;
37157;SDS011;23050;51.776;22.638;2023-08-21T09:07:18;11.98;;;10.77;;
37157;SDS011;23050;51.776;22.638;2023-08-21T09:09:45;14.32;;;11.50;;
37157;SDS011;23050;51.776;22.638;2023-08-21T09:12:13;14.20;;;11.77;;
37157;SDS011;23050;51.776;22.638;2023-08-21T09:14:39;16.35;;;12.95;;
37157;SDS011;23050;51.776;22.638;2023-08-21T09:17:06;15.30;;;12.77;;
37157;SDS011;23050;51.776;22.638;2023-08-21T09:19:32;17.98;;;13.30;;
37157;SDS011;23050;51.776;22.638;2023-08-21T09:21:57;19.73;;;14.10;;
37157;SDS011;23050;51.776;22.638;2023-08-21T09:24:23;16.67;;;13.85;;
37157;SDS011;23050;51.776;22.638;2023-08-21T09:26:49;22.70;;;14.55;;
37157;SDS011;23050;51.776;22.638;2023-08-21T09:29:15;17.27;;;14.55;;
37157;SDS011;23050;51.776;22.638;2023-08-21T09:31:41;18.13;;;14.75;;
37157;SDS011;23050;51.776;22.638;2023-08-21T09:34:10;22.42;;;15.10;;
37157;SDS011;23050;51.776;22.638;2023-08-21T09:36:36;23.00;;;15.77;;
37157;SDS011;23050;51.776;22.638;2023-08-21T09:39:04;22.08;;;14.82;;
37157;SDS011;23050;51.776;22.638;2023-08-21T09:41:31;18.85;;;14.50;;
37157;SDS011;23050;51.776;22.638;2023-08-21T09:44:00;17.02;;;14.48;;
37157;SDS011;23050;51.776;22.638;2023-08-21T09:46:29;16.88;;;13.15;;
37157;SDS011;23050;51.776;22.638;2023-08-21T09:48:54;15.40;;;12.35;;
37157;SDS011;23050;51.776;22.638;2023-08-21T09:51:20;15.02;;;13.40;;
37157;SDS011;23050;51.776;22.638;2023-08-21T09:53:49;20.27;;;14.30;;
37157;SDS011;23050;51.776;22.638;2023-08-21T09:56:17;15.77;;;13.25;;
37157;SDS011;23050;51.776;22.638;2023-08-21T09:58:43;16.30;;;13.27;;
37157;SDS011;23050;51.776;22.638;2023-08-21T10:01:10;14.75;;;13.10;;
37157;SDS011;23050;51.776;22.638;2023-08-21T10:03:40;14.40;;;13.00;;
37157;SDS011;23050;51.776;22.638;2023-08-21T10:06:10;13.77;;;12.23;;
37157;SDS011;23050;51.776;22.638;2023-08-21T10:08:37;16.00;;;13.43;;
37157;SDS011;23050;51.776;22.638;2023-08-21T10:11:07;13.77;;;12.32;;
37157;SDS011;23050;51.776;22.638;2023-08-21T10:13:35;16.95;;;12.00;;
37157;SDS011;23050;51.776;22.638;2023-08-21T10:16:03;16.23;;;11.85;;
37157;SDS011;23050;51.776;22.638;2023-08-21T10:18:31;13.43;;;11.80;;
37157;SDS011;23050;51.776;22.638;2023-08-21T10:21:14;14.55;;;11.52;;
37157;SDS011;23050;51.776;22.638;2023-08-21T10:23:42;13.00;;;11.25;;
37157;SDS011;23050;51.776;22.638;2023-08-21T10:26:11;15.35;;;11.98;;
37157;SDS011;23050;51.776;22.638;2023-08-21T10:28:50;12.30;;;11.00;;
37157;SDS011;23050;51.776;22.638;2023-08-21T10:31:31;15.15;;;10.63;;
37157;SDS011;23050;51.776;22.638;2023-08-21T10:33:57;13.90;;;10.90;;
37157;SDS011;23050;51.776;22.638;2023-08-21T10:37:24;11.98;;;10.07;;
37157;SDS011;23050;51.776;22.638;2023-08-21T10:39:30;12.10;;;10.27;;
37157;SDS011;23050;51.776;22.638;2023-08-21T10:42:02;14.43;;;10.67;;
37157;SDS011;23050;51.776;22.638;2023-08-21T10:44:52;15.77;;;11.98;;
37157;SDS011;23050;51.776;22.638;2023-08-21T10:47:31;15.32;;;11.65;;
37157;SDS011;23050;51.776;22.638;2023-08-21T10:49:59;13.07;;;11.38;;
37157;SDS011;23050;51.776;22.638;2023-08-21T10:52:30;14.40;;;10.60;;
37157;SDS011;23050;51.776;22.638;2023-08-21T10:55:00;14.52;;;10.82;;
37157;SDS011;23050;51.776;22.638;2023-08-21T10:57:27;15.00;;;10.13;;
37157;SDS011;23050;51.776;22.638;2023-08-21T10:59:58;14.25;;;10.70;;
37157;SDS011;23050;51.776;22.638;2023-08-21T11:02:30;14.60;;;10.40;;
37157;SDS011;23050;51.776;22.638;2023-08-21T11:04:57;12.68;;;10.57;;
37157;SDS011;23050;51.776;22.638;2023-08-21T11:07:24;14.32;;;10.00;;
37157;SDS011;23050;51.776;22.638;2023-08-21T11:09:50;11.95;;;9.20;;
37157;SDS011;23050;51.776;22.638;2023-08-21T11:12:22;12.45;;;8.45;;
37157;SDS011;23050;51.776;22.638;2023-08-21T11:14:49;9.45;;;8.23;;
37157;SDS011;23050;51.776;22.638;2023-08-21T11:17:16;10.25;;;8.32;;
37157;SDS011;23050;51.776;22.638;2023-08-21T11:19:43;13.23;;;8.30;;
37157;SDS011;23050;51.776;22.638;2023-08-21T11:22:09;12.48;;;8.20;;
37157;SDS011;23050;51.776;22.638;2023-08-21T11:24:45;9.15;;;7.80;;
37157;SDS011;23050;51.776;22.638;2023-08-21T11:27:13;11.05;;;8.48;;
37157;SDS011;23050;51.776;22.638;2023-08-21T11:29:46;10.77;;;7.53;;
37157;SDS011;23050;51.776;22.638;2023-08-21T11:32:17;11.75;;;7.60;;
37157;SDS011;23050;51.776;22.638;2023-08-21T11:34:53;10.23;;;8.18;;
37157;SDS011;23050;51.776;22.638;2023-08-21T11:37:20;9.75;;;7.35;;
37157;SDS011;23050;51.776;22.638;2023-08-21T11:39:48;8.45;;;7.57;;
37157;SDS011;23050;51.776;22.638;2023-08-21T11:42:21;7.70;;;6.90;;
37157;SDS011;23050;51.776;22.638;2023-08-21T11:44:52;12.45;;;7.55;;
37157;SDS011;23050;51.776;22.638;2023-08-21T11:47:19;9.50;;;7.25;;
37157;SDS011;23050;51.776;22.638;2023-08-21T11:49:46;10.13;;;8.13;;
37157;SDS011;23050;51.776;22.638;2023-08-21T11:52:14;10.48;;;7.20;;
37157;SDS011;23050;51.776;22.638;2023-08-21T11:54:53;10.60;;;7.88;;
37157;SDS011;23050;51.776;22.638;2023-08-21T11:57:21;9.57;;;8.00;;
37157;SDS011;23050;51.776;22.638;2023-08-21T11:59:50;10.10;;;8.05;;
37157;SDS011;23050;51.776;22.638;2023-08-21T12:02:17;9.65;;;8.52;;
37157;SDS011;23050;51.776;22.638;2023-08-21T12:04:51;9.90;;;8.10;;
37157;SDS011;23050;51.776;22.638;2023-08-21T12:07:25;14.77;;;8.90;;
37157;SDS011;23050;51.776;22.638;2023-08-21T12:09:51;9.05;;;8.15;;
37157;SDS011;23050;51.776;22.638;2023-08-21T12:12:18;12.63;;;8.77;;
37157;SDS011;23050;51.776;22.638;2023-08-21T12:14:43;10.40;;;7.82;;
37157;SDS011;23050;51.776;22.638;2023-08-21T12:17:09;9.35;;;7.63;;
37157;SDS011;23050;51.776;22.638;2023-08-21T12:19:35;8.23;;;7.43;;
37157;SDS011;23050;51.776;22.638;2023-08-21T12:22:01;8.27;;;7.22;;
37157;SDS011;23050;51.776;22.638;2023-08-21T12:24:28;9.00;;;7.50;;
37157;SDS011;23050;51.776;22.638;2023-08-21T12:26:54;8.00;;;7.30;;
37157;SDS011;23050;51.776;22.638;2023-08-21T12:29:20;7.97;;;7.28;;
37157;SDS011;23050;51.776;22.638;2023-08-21T12:31:46;8.80;;;6.90;;
37157;SDS011;23050;51.776;22.638;2023-08-21T12:34:12;8.38;;;6.80;;
37157;SDS011;23050;51.776;22.638;2023-08-21T12:36:37;8.02;;;6.88;;
37157;SDS011;23050;51.776;22.638;2023-08-21T12:39:04;7.90;;;7.03;;
37157;SDS011;23050;51.776;22.638;2023-08-21T12:41:30;7.65;;;6.90;;
37157;SDS011;23050;51.776;22.638;2023-08-21T12:43:57;10.90;;;7.43;;
37157;SDS011;23050;51.776;22.638;2023-08-21T12:46:24;7.75;;;6.10;;
37157;SDS011;23050;51.776;22.638;2023-08-21T12:48:52;6.50;;;5.68;;
37157;SDS011;23050;51.776;22.638;2023-08-21T12:51:18;7.60;;;6.00;;
37157;SDS011;23050;51.776;22.638;2023-08-21T12:53:44;5.97;;;5.40;;
37157;SDS011;23050;51.776;22.638;2023-08-21T12:56:10;7.90;;;5.63;;
37157;SDS011;23050;51.776;22.638;2023-08-21T12:58:36;9.00;;;4.93;;
37157;SDS011;23050;51.776;22.638;2023-08-21T13:01:01;5.25;;;4.75;;
37157;SDS011;23050;51.776;22.638;2023-08-21T13:03:28;6.60;;;4.20;;
37157;SDS011;23050;51.776;22.638;2023-08-21T13:05:54;6.63;;;4.18;;
37157;SDS011;23050;51.776;22.638;2023-08-21T13:08:20;5.93;;;4.20;;
37157;SDS011;23050;51.776;22.638;2023-08-21T13:10:46;5.88;;;4.30;;
37157;SDS011;23050;51.776;22.638;2023-08-21T13:13:12;8.93;;;4.68;;
37157;SDS011;23050;51.776;22.638;2023-08-21T13:15:37;7.43;;;4.38;;
37157;SDS011;23050;51.776;22.638;2023-08-21T13:18:03;8.82;;;3.90;;
37157;SDS011;23050;51.776;22.638;2023-08-21T13:20:29;5.55;;;4.20;;
37157;SDS011;23050;51.776;22.638;2023-08-21T13:22:55;6.78;;;3.95;;
37157;SDS011;23050;51.776;22.638;2023-08-21T13:25:24;4.75;;;4.28;;
37157;SDS011;23050;51.776;22.638;2023-08-21T13:27:50;7.63;;;4.22;;
37157;SDS011;23050;51.776;22.638;2023-08-21T13:30:16;5.90;;;4.20;;
37157;SDS011;23050;51.776;22.638;2023-08-21T13:32:42;6.07;;;4.15;;
37157;SDS011;23050;51.776;22.638;2023-08-21T13:35:09;5.45;;;4.40;;
37157;SDS011;23050;51.776;22.638;2023-08-21T13:37:36;6.65;;;4.93;;
37157;SDS011;23050;51.776;22.638;2023-08-21T13:40:02;7.25;;;5.03;;
37157;SDS011;23050;51.776;22.638;2023-08-21T13:42:34;6.32;;;5.20;;
37157;SDS011;23050;51.776;22.638;2023-08-21T13:45:05;9.02;;;5.22;;
37157;SDS011;23050;51.776;22.638;2023-08-21T13:47:32;6.55;;;5.15;;
37157;SDS011;23050;51.776;22.638;2023-08-21T13:49:58;10.30;;;5.10;;
37157;SDS011;23050;51.776;22.638;2023-08-21T13:52:24;8.73;;;6.00;;
37157;SDS011;23050;51.776;22.638;2023-08-21T13:54:49;5.88;;;5.28;;
37157;SDS011;23050;51.776;22.638;2023-08-21T13:57:15;5.78;;;5.28;;
37157;SDS011;23050;51.776;22.638;2023-08-21T13:59:42;8.23;;;5.60;;
37157;SDS011;23050;51.776;22.638;2023-08-21T14:02:47;8.07;;;5.68;;
37157;SDS011;23050;51.776;22.638;2023-08-21T14:05:13;9.90;;;6.30;;
37157;SDS011;23050;51.776;22.638;2023-08-21T14:07:39;9.40;;;6.53;;
37157;SDS011;23050;51.776;22.638;2023-08-21T14:10:06;8.13;;;6.40;;
37157;SDS011;23050;51.776;22.638;2023-08-21T14:12:32;7.75;;;6.68;;
37157;SDS011;23050;51.776;22.638;2023-08-21T14:14:58;7.35;;;5.97;;
37157;SDS011;23050;51.776;22.638;2023-08-21T14:17:24;7.05;;;6.18;;
37157;SDS011;23050;51.776;22.638;2023-08-21T14:19:50;8.80;;;5.95;;
37157;SDS011;23050;51.776;22.638;2023-08-21T14:22:16;12.45;;;6.28;;
37157;SDS011;23050;51.776;22.638;2023-08-21T14:24:41;9.57;;;6.53;;
37157;SDS011;23050;51.776;22.638;2023-08-21T14:27:07;6.22;;;5.63;;
37157;SDS011;23050;51.776;22.638;2023-08-21T14:29:32;6.25;;;5.40;;
37157;SDS011;23050;51.776;22.638;2023-08-21T14:31:58;5.57;;;5.07;;
37157;SDS011;23050;51.776;22.638;2023-08-21T14:34:25;6.35;;;5.28;;
37157;SDS011;23050;51.776;22.638;2023-08-21T14:36:52;7.97;;;5.43;;
37157;SDS011;23050;51.776;22.638;2023-08-21T14:39:19;10.27;;;5.68;;